sensor_id;sensor_type;location;lat;lon;timestamp;P1;durP1;ratioP1;P2;durP2;ratioP2
52692;SDS011;68218;51.012;-1.648;2023-04-20T00:02:18;11.90;;;10.80;;
52692;SDS011;68218;51.012;-1.648;2023-04-20T00:07:08;14.50;;;11.33;;
52692;SDS011;68218;51.012;-1.648;2023-04-20T00:09:35;15.98;;;11.00;;
52692;SDS011;68218;51.012;-1.648;2023-04-20T00:12:01;13.27;;;11.10;;
52692;SDS011;68218;51.012;-1.648;2023-04-20T00:16:51;11.33;;;10.30;;
52692;SDS011;68218;51.012;-1.648;2023-04-20T00:19:17;12.52;;;11.00;;
52692;SDS011;68218;51.012;-1.648;2023-04-20T00:24:08;12.30;;;11.00;;
52692;SDS011;68218;51.012;-1.648;2023-04-20T00:26:33;11.40;;;10.25;;
52692;SDS011;68218;51.012;-1.648;2023-04-20T00:28:59;12.25;;;10.68;;
52692;SDS011;68218;51.012;-1.648;2023-04-20T00:31:24;11.10;;;10.00;;
52692;SDS011;68218;51.012;-1.648;2023-04-20T00:33:50;11.13;;;9.70;;
52692;SDS011;68218;51.012;-1.648;2023-04-20T00:36:15;11.13;;;10.00;;
52692;SDS011;68218;51.012;-1.648;2023-04-20T00:38:41;12.27;;;9.85;;
52692;SDS011;68218;51.012;-1.648;2023-04-20T00:41:06;12.85;;;10.05;;
52692;SDS011;68218;51.012;-1.648;2023-04-20T00:43:32;12.45;;;10.73;;
52692;SDS011;68218;51.012;-1.648;2023-04-20T00:45:57;13.20;;;10.93;;
52692;SDS011;68218;51.012;-1.648;2023-04-20T00:50:48;12.63;;;11.18;;
52692;SDS011;68218;51.012;-1.648;2023-04-20T00:53:14;13.07;;;10.10;;
52692;SDS011;68218;51.012;-1.648;2023-04-20T00:55:42;11.88;;;10.63;;
52692;SDS011;68218;51.012;-1.648;2023-04-20T00:58:08;13.32;;;10.60;;
52692;SDS011;68218;51.012;-1.648;2023-04-20T01:00:35;12.10;;;10.48;;
52692;SDS011;68218;51.012;-1.648;2023-04-20T01:03:01;12.10;;;10.77;;
52692;SDS011;68218;51.012;-1.648;2023-04-20T01:05:26;12.90;;;10.35;;
52692;SDS011;68218;51.012;-1.648;2023-04-20T01:07:52;12.10;;;10.68;;
52692;SDS011;68218;51.012;-1.648;2023-04-20T01:10:17;11.73;;;10.63;;
52692;SDS011;68218;51.012;-1.648;2023-04-20T01:12:42;12.48;;;10.63;;
52692;SDS011;68218;51.012;-1.648;2023-04-20T01:15:08;12.95;;;11.10;;
52692;SDS011;68218;51.012;-1.648;2023-04-20T01:17:34;13.65;;;10.68;;
52692;SDS011;68218;51.012;-1.648;2023-04-20T01:20:06;11.30;;;10.27;;
52692;SDS011;68218;51.012;-1.648;2023-04-20T01:22:40;12.85;;;10.10;;
52692;SDS011;68218;51.012;-1.648;2023-04-20T01:25:07;14.82;;;10.13;;
52692;SDS011;68218;51.012;-1.648;2023-04-20T01:27:33;11.43;;;10.43;;
52692;SDS011;68218;51.012;-1.648;2023-04-20T01:29:58;13.95;;;10.00;;
52692;SDS011;68218;51.012;-1.648;2023-04-20T01:32:23;12.20;;;11.02;;
52692;SDS011;68218;51.012;-1.648;2023-04-20T01:34:49;12.23;;;10.98;;
52692;SDS011;68218;51.012;-1.648;2023-04-20T01:37:15;11.98;;;10.55;;
52692;SDS011;68218;51.012;-1.648;2023-04-20T01:39:40;14.02;;;10.82;;
52692;SDS011;68218;51.012;-1.648;2023-04-20T01:42:06;14.65;;;10.70;;
52692;SDS011;68218;51.012;-1.648;2023-04-20T01:44:31;13.10;;;10.48;;
52692;SDS011;68218;51.012;-1.648;2023-04-20T01:46:57;13.05;;;10.63;;
52692;SDS011;68218;51.012;-1.648;2023-04-20T01:49:22;15.63;;;10.68;;
52692;SDS011;68218;51.012;-1.648;2023-04-20T01:51:47;11.52;;;10.35;;
52692;SDS011;68218;51.012;-1.648;2023-04-20T01:54:13;12.55;;;11.00;;
52692;SDS011;68218;51.012;-1.648;2023-04-20T01:56:38;15.75;;;11.23;;
52692;SDS011;68218;51.012;-1.648;2023-04-20T01:59:04;14.88;;;12.00;;
52692;SDS011;68218;51.012;-1.648;2023-04-20T02:01:30;15.32;;;10.45;;
52692;SDS011;68218;51.012;-1.648;2023-04-20T02:03:55;13.45;;;10.80;;
52692;SDS011;68218;51.012;-1.648;2023-04-20T02:06:21;12.93;;;10.25;;
52692;SDS011;68218;51.012;-1.648;2023-04-20T02:08:46;15.10;;;11.57;;
52692;SDS011;68218;51.012;-1.648;2023-04-20T02:11:12;13.80;;;10.70;;
52692;SDS011;68218;51.012;-1.648;2023-04-20T02:13:37;11.88;;;10.70;;
52692;SDS011;68218;51.012;-1.648;2023-04-20T02:16:03;13.50;;;10.93;;
52692;SDS011;68218;51.012;-1.648;2023-04-20T02:18:28;12.25;;;10.32;;
52692;SDS011;68218;51.012;-1.648;2023-04-20T02:20:57;11.18;;;10.00;;
52692;SDS011;68218;51.012;-1.648;2023-04-20T02:23:23;13.43;;;10.70;;
52692;SDS011;68218;51.012;-1.648;2023-04-20T02:25:48;11.68;;;10.48;;
52692;SDS011;68218;51.012;-1.648;2023-04-20T02:28:14;15.48;;;10.70;;
52692;SDS011;68218;51.012;-1.648;2023-04-20T02:30:39;12.35;;;10.88;;
52692;SDS011;68218;51.012;-1.648;2023-04-20T02:33:05;15.80;;;11.35;;
52692;SDS011;68218;51.012;-1.648;2023-04-20T02:35:30;12.40;;;10.38;;
52692;SDS011;68218;51.012;-1.648;2023-04-20T02:37:56;14.88;;;10.52;;
52692;SDS011;68218;51.012;-1.648;2023-04-20T02:40:21;12.13;;;10.88;;
52692;SDS011;68218;51.012;-1.648;2023-04-20T02:42:47;12.73;;;10.77;;
52692;SDS011;68218;51.012;-1.648;2023-04-20T02:45:12;12.07;;;10.85;;
52692;SDS011;68218;51.012;-1.648;2023-04-20T02:47:38;11.98;;;10.77;;
52692;SDS011;68218;51.012;-1.648;2023-04-20T02:50:03;12.50;;;10.95;;
52692;SDS011;68218;51.012;-1.648;2023-04-20T02:52:29;15.10;;;10.88;;
52692;SDS011;68218;51.012;-1.648;2023-04-20T02:54:55;13.05;;;11.75;;
52692;SDS011;68218;51.012;-1.648;2023-04-20T02:57:20;12.18;;;11.18;;
52692;SDS011;68218;51.012;-1.648;2023-04-20T02:59:46;12.60;;;10.25;;
52692;SDS011;68218;51.012;-1.648;2023-04-20T03:02:11;14.32;;;11.07;;
52692;SDS011;68218;51.012;-1.648;2023-04-20T03:04:36;12.45;;;11.02;;
52692;SDS011;68218;51.012;-1.648;2023-04-20T03:07:03;11.77;;;10.57;;
52692;SDS011;68218;51.012;-1.648;2023-04-20T03:09:28;15.48;;;10.85;;
52692;SDS011;68218;51.012;-1.648;2023-04-20T03:11:54;15.38;;;11.35;;
52692;SDS011;68218;51.012;-1.648;2023-04-20T03:14:20;11.73;;;10.52;;
52692;SDS011;68218;51.012;-1.648;2023-04-20T03:16:45;12.38;;;10.73;;
52692;SDS011;68218;51.012;-1.648;2023-04-20T03:19:11;15.10;;;11.13;;
52692;SDS011;68218;51.012;-1.648;2023-04-20T03:21:36;12.40;;;11.10;;
52692;SDS011;68218;51.012;-1.648;2023-04-20T03:24:02;12.48;;;10.63;;
52692;SDS011;68218;51.012;-1.648;2023-04-20T03:26:27;12.32;;;11.05;;
52692;SDS011;68218;51.012;-1.648;2023-04-20T03:28:53;14.43;;;10.68;;
52692;SDS011;68218;51.012;-1.648;2023-04-20T03:31:18;12.40;;;10.73;;
52692;SDS011;68218;51.012;-1.648;2023-04-20T03:33:44;18.95;;;11.98;;
52692;SDS011;68218;51.012;-1.648;2023-04-20T03:36:09;16.23;;;11.23;;
52692;SDS011;68218;51.012;-1.648;2023-04-20T03:38:35;18.30;;;10.55;;
52692;SDS011;68218;51.012;-1.648;2023-04-20T03:41:01;11.70;;;10.57;;
52692;SDS011;68218;51.012;-1.648;2023-04-20T03:43:26;15.13;;;11.07;;
52692;SDS011;68218;51.012;-1.648;2023-04-20T03:45:52;15.93;;;11.68;;
52692;SDS011;68218;51.012;-1.648;2023-04-20T03:48:17;12.70;;;11.40;;
52692;SDS011;68218;51.012;-1.648;2023-04-20T03:50:42;12.95;;;11.20;;
52692;SDS011;68218;51.012;-1.648;2023-04-20T03:53:08;22.75;;;12.40;;
52692;SDS011;68218;51.012;-1.648;2023-04-20T03:55:33;16.98;;;12.00;;
52692;SDS011;68218;51.012;-1.648;2023-04-20T03:57:59;14.30;;;12.82;;
52692;SDS011;68218;51.012;-1.648;2023-04-20T04:00:24;13.95;;;12.57;;
52692;SDS011;68218;51.012;-1.648;2023-04-20T04:02:49;15.88;;;13.48;;
52692;SDS011;68218;51.012;-1.648;2023-04-20T04:05:15;15.25;;;12.48;;
52692;SDS011;68218;51.012;-1.648;2023-04-20T04:07:41;14.40;;;12.90;;
52692;SDS011;68218;51.012;-1.648;2023-04-20T04:10:06;16.38;;;12.88;;
52692;SDS011;68218;51.012;-1.648;2023-04-20T04:12:32;18.45;;;13.35;;
52692;SDS011;68218;51.012;-1.648;2023-04-20T04:14:57;17.00;;;13.65;;
52692;SDS011;68218;51.012;-1.648;2023-04-20T04:17:23;18.75;;;13.82;;
52692;SDS011;68218;51.012;-1.648;2023-04-20T04:19:48;16.25;;;13.05;;
52692;SDS011;68218;51.012;-1.648;2023-04-20T04:22:13;17.10;;;14.68;;
52692;SDS011;68218;51.012;-1.648;2023-04-20T04:24:39;18.60;;;14.25;;
52692;SDS011;68218;51.012;-1.648;2023-04-20T04:29:31;15.82;;;13.60;;
52692;SDS011;68218;51.012;-1.648;2023-04-20T04:32:00;16.73;;;13.70;;
52692;SDS011;68218;51.012;-1.648;2023-04-20T04:34:27;17.40;;;13.43;;
52692;SDS011;68218;51.012;-1.648;2023-04-20T04:36:53;16.58;;;14.00;;
52692;SDS011;68218;51.012;-1.648;2023-04-20T04:39:19;23.20;;;14.20;;
52692;SDS011;68218;51.012;-1.648;2023-04-20T04:41:44;17.00;;;13.77;;
52692;SDS011;68218;51.012;-1.648;2023-04-20T04:44:10;18.10;;;14.55;;
52692;SDS011;68218;51.012;-1.648;2023-04-20T04:46:36;18.88;;;15.57;;
52692;SDS011;68218;51.012;-1.648;2023-04-20T04:49:01;21.63;;;15.18;;
52692;SDS011;68218;51.012;-1.648;2023-04-20T04:51:28;18.05;;;14.57;;
52692;SDS011;68218;51.012;-1.648;2023-04-20T04:53:54;18.55;;;14.55;;
52692;SDS011;68218;51.012;-1.648;2023-04-20T04:56:21;26.10;;;15.38;;
52692;SDS011;68218;51.012;-1.648;2023-04-20T04:58:47;16.42;;;14.60;;
52692;SDS011;68218;51.012;-1.648;2023-04-20T05:01:12;23.55;;;15.27;;
52692;SDS011;68218;51.012;-1.648;2023-04-20T05:03:38;19.88;;;15.77;;
52692;SDS011;68218;51.012;-1.648;2023-04-20T05:06:03;27.38;;;16.27;;
52692;SDS011;68218;51.012;-1.648;2023-04-20T05:08:29;16.25;;;14.63;;
52692;SDS011;68218;51.012;-1.648;2023-04-20T05:10:56;21.50;;;14.90;;
52692;SDS011;68218;51.012;-1.648;2023-04-20T05:13:21;17.15;;;14.32;;
52692;SDS011;68218;51.012;-1.648;2023-04-20T05:15:47;22.05;;;15.93;;
52692;SDS011;68218;51.012;-1.648;2023-04-20T05:18:12;20.63;;;15.15;;
52692;SDS011;68218;51.012;-1.648;2023-04-20T05:20:37;20.83;;;15.30;;
52692;SDS011;68218;51.012;-1.648;2023-04-20T05:23:03;23.48;;;14.90;;
52692;SDS011;68218;51.012;-1.648;2023-04-20T05:25:28;22.77;;;15.65;;
52692;SDS011;68218;51.012;-1.648;2023-04-20T05:27:54;27.90;;;15.80;;
52692;SDS011;68218;51.012;-1.648;2023-04-20T05:30:19;21.80;;;16.30;;
52692;SDS011;68218;51.012;-1.648;2023-04-20T05:32:45;22.33;;;15.90;;
52692;SDS011;68218;51.012;-1.648;2023-04-20T05:35:11;22.55;;;15.63;;
52692;SDS011;68218;51.012;-1.648;2023-04-20T05:37:36;24.73;;;15.90;;
52692;SDS011;68218;51.012;-1.648;2023-04-20T05:40:02;22.27;;;14.90;;
52692;SDS011;68218;51.012;-1.648;2023-04-20T05:42:28;24.38;;;14.35;;
52692;SDS011;68218;51.012;-1.648;2023-04-20T05:44:54;21.40;;;15.35;;
52692;SDS011;68218;51.012;-1.648;2023-04-20T05:47:20;19.05;;;14.73;;
52692;SDS011;68218;51.012;-1.648;2023-04-20T05:49:45;22.92;;;14.98;;
52692;SDS011;68218;51.012;-1.648;2023-04-20T05:52:11;22.13;;;15.25;;
52692;SDS011;68218;51.012;-1.648;2023-04-20T05:54:36;20.00;;;14.80;;
52692;SDS011;68218;51.012;-1.648;2023-04-20T05:57:02;22.25;;;15.93;;
52692;SDS011;68218;51.012;-1.648;2023-04-20T05:59:29;25.20;;;15.30;;
52692;SDS011;68218;51.012;-1.648;2023-04-20T06:01:55;22.70;;;16.67;;
52692;SDS011;68218;51.012;-1.648;2023-04-20T06:04:20;20.75;;;15.48;;
52692;SDS011;68218;51.012;-1.648;2023-04-20T06:06:46;21.48;;;14.93;;
52692;SDS011;68218;51.012;-1.648;2023-04-20T06:09:11;21.27;;;15.27;;
52692;SDS011;68218;51.012;-1.648;2023-04-20T06:11:37;18.70;;;14.73;;
52692;SDS011;68218;51.012;-1.648;2023-04-20T06:14:02;21.55;;;15.88;;
52692;SDS011;68218;51.012;-1.648;2023-04-20T06:16:28;23.02;;;14.82;;
52692;SDS011;68218;51.012;-1.648;2023-04-20T06:18:53;27.77;;;15.55;;
52692;SDS011;68218;51.012;-1.648;2023-04-20T06:21:18;23.55;;;14.73;;
52692;SDS011;68218;51.012;-1.648;2023-04-20T06:23:44;22.45;;;15.27;;
52692;SDS011;68218;51.012;-1.648;2023-04-20T06:26:10;22.30;;;15.90;;
52692;SDS011;68218;51.012;-1.648;2023-04-20T06:28:36;19.30;;;15.18;;
52692;SDS011;68218;51.012;-1.648;2023-04-20T06:31:02;18.08;;;15.02;;
52692;SDS011;68218;51.012;-1.648;2023-04-20T06:33:28;26.73;;;16.23;;
52692;SDS011;68218;51.012;-1.648;2023-04-20T06:35:54;21.20;;;15.40;;
52692;SDS011;68218;51.012;-1.648;2023-04-20T06:38:21;23.38;;;15.70;;
52692;SDS011;68218;51.012;-1.648;2023-04-20T06:40:47;28.35;;;14.55;;
52692;SDS011;68218;51.012;-1.648;2023-04-20T06:43:13;23.73;;;15.32;;
52692;SDS011;68218;51.012;-1.648;2023-04-20T06:45:38;19.88;;;14.88;;
52692;SDS011;68218;51.012;-1.648;2023-04-20T06:48:04;21.95;;;15.60;;
52692;SDS011;68218;51.012;-1.648;2023-04-20T06:52:55;22.10;;;15.43;;
52692;SDS011;68218;51.012;-1.648;2023-04-20T06:55:20;22.77;;;16.25;;
52692;SDS011;68218;51.012;-1.648;2023-04-20T06:57:46;18.60;;;14.60;;
52692;SDS011;68218;51.012;-1.648;2023-04-20T07:02:41;18.25;;;15.57;;
52692;SDS011;68218;51.012;-1.648;2023-04-20T07:05:07;23.92;;;15.55;;
52692;SDS011;68218;51.012;-1.648;2023-04-20T07:07:32;21.05;;;15.77;;
52692;SDS011;68218;51.012;-1.648;2023-04-20T07:12:23;22.03;;;15.23;;
52692;SDS011;68218;51.012;-1.648;2023-04-20T07:17:14;20.58;;;15.45;;
52692;SDS011;68218;51.012;-1.648;2023-04-20T07:19:39;24.17;;;15.52;;
52692;SDS011;68218;51.012;-1.648;2023-04-20T07:22:05;20.48;;;15.98;;
52692;SDS011;68218;51.012;-1.648;2023-04-20T07:24:30;23.73;;;16.05;;
52692;SDS011;68218;51.012;-1.648;2023-04-20T07:29:22;19.65;;;17.30;;
52692;SDS011;68218;51.012;-1.648;2023-04-20T07:31:47;25.83;;;19.02;;
52692;SDS011;68218;51.012;-1.648;2023-04-20T07:34:13;24.02;;;19.67;;
52692;SDS011;68218;51.012;-1.648;2023-04-20T07:39:03;24.33;;;20.27;;
52692;SDS011;68218;51.012;-1.648;2023-04-20T07:41:29;27.60;;;21.27;;
52692;SDS011;68218;51.012;-1.648;2023-04-20T07:46:20;22.83;;;20.53;;
52692;SDS011;68218;51.012;-1.648;2023-04-20T07:48:46;23.98;;;19.67;;
52692;SDS011;68218;51.012;-1.648;2023-04-20T07:51:12;16.48;;;14.82;;
52692;SDS011;68218;51.012;-1.648;2023-04-20T07:53:38;20.58;;;14.70;;
52692;SDS011;68218;51.012;-1.648;2023-04-20T07:56:03;18.58;;;14.13;;
52692;SDS011;68218;51.012;-1.648;2023-04-20T07:58:29;19.85;;;14.38;;
52692;SDS011;68218;51.012;-1.648;2023-04-20T08:00:54;17.30;;;14.65;;
52692;SDS011;68218;51.012;-1.648;2023-04-20T08:03:21;16.38;;;14.75;;
52692;SDS011;68218;51.012;-1.648;2023-04-20T08:05:46;19.00;;;14.75;;
52692;SDS011;68218;51.012;-1.648;2023-04-20T08:08:12;21.10;;;14.60;;
52692;SDS011;68218;51.012;-1.648;2023-04-20T08:10:37;24.00;;;15.98;;
52692;SDS011;68218;51.012;-1.648;2023-04-20T08:13:03;22.13;;;14.90;;
52692;SDS011;68218;51.012;-1.648;2023-04-20T08:15:28;15.73;;;14.07;;
52692;SDS011;68218;51.012;-1.648;2023-04-20T08:17:53;16.73;;;14.65;;
52692;SDS011;68218;51.012;-1.648;2023-04-20T08:20:19;18.58;;;14.70;;
52692;SDS011;68218;51.012;-1.648;2023-04-20T08:22:45;17.85;;;15.70;;
52692;SDS011;68218;51.012;-1.648;2023-04-20T08:25:10;23.35;;;15.82;;
52692;SDS011;68218;51.012;-1.648;2023-04-20T08:27:36;24.40;;;15.63;;
52692;SDS011;68218;51.012;-1.648;2023-04-20T08:30:01;17.98;;;15.60;;
52692;SDS011;68218;51.012;-1.648;2023-04-20T08:32:28;19.02;;;14.90;;
52692;SDS011;68218;51.012;-1.648;2023-04-20T08:34:54;21.70;;;14.32;;
52692;SDS011;68218;51.012;-1.648;2023-04-20T08:37:20;16.35;;;14.63;;
52692;SDS011;68218;51.012;-1.648;2023-04-20T08:39:45;20.83;;;14.70;;
52692;SDS011;68218;51.012;-1.648;2023-04-20T08:42:11;19.15;;;14.25;;
52692;SDS011;68218;51.012;-1.648;2023-04-20T08:44:36;18.45;;;13.90;;
52692;SDS011;68218;51.012;-1.648;2023-04-20T08:47:02;18.42;;;13.95;;
52692;SDS011;68218;51.012;-1.648;2023-04-20T08:49:27;20.05;;;13.15;;
52692;SDS011;68218;51.012;-1.648;2023-04-20T08:51:56;15.65;;;13.82;;
52692;SDS011;68218;51.012;-1.648;2023-04-20T08:54:22;15.43;;;13.75;;
52692;SDS011;68218;51.012;-1.648;2023-04-20T08:56:47;19.60;;;13.82;;
52692;SDS011;68218;51.012;-1.648;2023-04-20T08:59:13;19.35;;;14.25;;
52692;SDS011;68218;51.012;-1.648;2023-04-20T09:01:40;17.98;;;15.15;;
52692;SDS011;68218;51.012;-1.648;2023-04-20T09:04:16;18.20;;;14.95;;
52692;SDS011;68218;51.012;-1.648;2023-04-20T09:06:45;17.48;;;15.73;;
52692;SDS011;68218;51.012;-1.648;2023-04-20T09:09:14;16.90;;;14.55;;
52692;SDS011;68218;51.012;-1.648;2023-04-20T09:11:40;19.48;;;15.15;;
52692;SDS011;68218;51.012;-1.648;2023-04-20T09:14:07;18.30;;;14.00;;
52692;SDS011;68218;51.012;-1.648;2023-04-20T09:16:37;15.30;;;13.73;;
52692;SDS011;68218;51.012;-1.648;2023-04-20T09:19:27;15.30;;;13.63;;
52692;SDS011;68218;51.012;-1.648;2023-04-20T09:21:54;16.48;;;13.95;;
52692;SDS011;68218;51.012;-1.648;2023-04-20T09:24:22;16.70;;;13.80;;
52692;SDS011;68218;51.012;-1.648;2023-04-20T09:26:54;17.38;;;14.18;;
52692;SDS011;68218;51.012;-1.648;2023-04-20T09:29:21;16.42;;;14.02;;
52692;SDS011;68218;51.012;-1.648;2023-04-20T09:31:48;23.02;;;14.25;;
52692;SDS011;68218;51.012;-1.648;2023-04-20T09:34:14;15.02;;;13.68;;
52692;SDS011;68218;51.012;-1.648;2023-04-20T09:36:40;16.13;;;14.35;;
52692;SDS011;68218;51.012;-1.648;2023-04-20T09:39:14;15.48;;;14.00;;
52692;SDS011;68218;51.012;-1.648;2023-04-20T09:41:42;16.13;;;14.57;;
52692;SDS011;68218;51.012;-1.648;2023-04-20T09:44:08;15.30;;;13.75;;
52692;SDS011;68218;51.012;-1.648;2023-04-20T09:46:34;16.45;;;14.80;;
52692;SDS011;68218;51.012;-1.648;2023-04-20T09:49:05;19.02;;;17.13;;
52692;SDS011;68218;51.012;-1.648;2023-04-20T09:51:39;18.45;;;16.75;;
52692;SDS011;68218;51.012;-1.648;2023-04-20T09:54:08;21.23;;;19.40;;
52692;SDS011;68218;51.012;-1.648;2023-04-20T09:56:35;17.88;;;16.15;;
52692;SDS011;68218;51.012;-1.648;2023-04-20T09:59:03;18.15;;;16.58;;
52692;SDS011;68218;51.012;-1.648;2023-04-20T10:01:31;19.52;;;17.60;;
52692;SDS011;68218;51.012;-1.648;2023-04-20T10:04:00;19.38;;;17.63;;
52692;SDS011;68218;51.012;-1.648;2023-04-20T10:06:27;19.17;;;17.33;;
52692;SDS011;68218;51.012;-1.648;2023-04-20T10:08:55;18.10;;;13.63;;
52692;SDS011;68218;51.012;-1.648;2023-04-20T10:13:52;15.85;;;14.25;;
52692;SDS011;68218;51.012;-1.648;2023-04-20T10:16:17;15.20;;;13.32;;
52692;SDS011;68218;51.012;-1.648;2023-04-20T10:18:54;15.50;;;13.82;;
52692;SDS011;68218;51.012;-1.648;2023-04-20T10:21:20;15.77;;;14.23;;
52692;SDS011;68218;51.012;-1.648;2023-04-20T10:23:49;15.05;;;13.65;;
52692;SDS011;68218;51.012;-1.648;2023-04-20T10:26:16;15.18;;;13.77;;
52692;SDS011;68218;51.012;-1.648;2023-04-20T10:28:41;15.23;;;13.82;;
52692;SDS011;68218;51.012;-1.648;2023-04-20T10:31:09;14.88;;;13.48;;
52692;SDS011;68218;51.012;-1.648;2023-04-20T10:33:58;15.07;;;13.73;;
52692;SDS011;68218;51.012;-1.648;2023-04-20T10:36:29;16.00;;;14.30;;
52692;SDS011;68218;51.012;-1.648;2023-04-20T10:39:12;14.80;;;13.50;;
52692;SDS011;68218;51.012;-1.648;2023-04-20T10:44:30;19.65;;;17.63;;
52692;SDS011;68218;51.012;-1.648;2023-04-20T10:46:57;21.63;;;19.52;;
52692;SDS011;68218;51.012;-1.648;2023-04-20T10:49:26;15.68;;;14.02;;
52692;SDS011;68218;51.012;-1.648;2023-04-20T10:51:55;15.43;;;14.00;;
52692;SDS011;68218;51.012;-1.648;2023-04-20T10:54:21;14.52;;;13.05;;
52692;SDS011;68218;51.012;-1.648;2023-04-20T10:56:50;15.75;;;14.13;;
52692;SDS011;68218;51.012;-1.648;2023-04-20T10:59:20;13.63;;;12.43;;
52692;SDS011;68218;51.012;-1.648;2023-04-20T11:01:47;15.57;;;13.90;;
52692;SDS011;68218;51.012;-1.648;2023-04-20T11:04:14;15.50;;;14.10;;
52692;SDS011;68218;51.012;-1.648;2023-04-20T11:06:40;15.60;;;13.98;;
52692;SDS011;68218;51.012;-1.648;2023-04-20T11:09:23;15.45;;;14.13;;
52692;SDS011;68218;51.012;-1.648;2023-04-20T11:12:00;15.43;;;13.82;;
52692;SDS011;68218;51.012;-1.648;2023-04-20T11:14:28;15.15;;;13.65;;
52692;SDS011;68218;51.012;-1.648;2023-04-20T11:16:58;16.08;;;13.93;;
52692;SDS011;68218;51.012;-1.648;2023-04-20T11:19:28;15.40;;;14.07;;
52692;SDS011;68218;51.012;-1.648;2023-04-20T11:21:54;16.90;;;13.60;;
52692;SDS011;68218;51.012;-1.648;2023-04-20T11:24:20;20.77;;;19.05;;
52692;SDS011;68218;51.012;-1.648;2023-04-20T11:26:48;16.05;;;14.45;;
52692;SDS011;68218;51.012;-1.648;2023-04-20T11:29:33;16.08;;;14.70;;
52692;SDS011;68218;51.012;-1.648;2023-04-20T11:32:04;15.95;;;13.57;;
52692;SDS011;68218;51.012;-1.648;2023-04-20T11:34:31;14.65;;;13.40;;
52692;SDS011;68218;51.012;-1.648;2023-04-20T11:37:02;15.13;;;13.77;;
52692;SDS011;68218;51.012;-1.648;2023-04-20T11:39:28;17.75;;;16.17;;
52692;SDS011;68218;51.012;-1.648;2023-04-20T11:41:54;14.85;;;13.55;;
52692;SDS011;68218;51.012;-1.648;2023-04-20T11:44:21;14.57;;;13.30;;
52692;SDS011;68218;51.012;-1.648;2023-04-20T11:46:48;13.15;;;11.95;;
52692;SDS011;68218;51.012;-1.648;2023-04-20T11:49:17;14.35;;;12.88;;
52692;SDS011;68218;51.012;-1.648;2023-04-20T11:51:43;14.63;;;13.27;;
52692;SDS011;68218;51.012;-1.648;2023-04-20T11:54:10;14.90;;;13.40;;
52692;SDS011;68218;51.012;-1.648;2023-04-20T11:56:36;14.30;;;12.82;;
52692;SDS011;68218;51.012;-1.648;2023-04-20T11:59:02;13.98;;;12.77;;
52692;SDS011;68218;51.012;-1.648;2023-04-20T12:01:28;13.48;;;12.32;;
52692;SDS011;68218;51.012;-1.648;2023-04-20T12:03:53;14.20;;;12.88;;
52692;SDS011;68218;51.012;-1.648;2023-04-20T12:06:19;14.60;;;13.20;;
52692;SDS011;68218;51.012;-1.648;2023-04-20T12:08:45;15.20;;;13.65;;
52692;SDS011;68218;51.012;-1.648;2023-04-20T12:11:12;13.82;;;12.70;;
52692;SDS011;68218;51.012;-1.648;2023-04-20T12:13:40;18.08;;;16.48;;
52692;SDS011;68218;51.012;-1.648;2023-04-20T12:16:06;14.23;;;12.80;;
52692;SDS011;68218;51.012;-1.648;2023-04-20T12:18:32;14.52;;;12.63;;
52692;SDS011;68218;51.012;-1.648;2023-04-20T12:20:57;14.20;;;12.93;;
52692;SDS011;68218;51.012;-1.648;2023-04-20T12:23:24;13.85;;;12.73;;
52692;SDS011;68218;51.012;-1.648;2023-04-20T12:25:50;14.50;;;13.20;;
52692;SDS011;68218;51.012;-1.648;2023-04-20T12:28:15;13.73;;;12.00;;
52692;SDS011;68218;51.012;-1.648;2023-04-20T12:30:41;13.63;;;12.38;;
52692;SDS011;68218;51.012;-1.648;2023-04-20T12:33:06;13.82;;;12.40;;
52692;SDS011;68218;51.012;-1.648;2023-04-20T12:35:31;12.60;;;11.50;;
52692;SDS011;68218;51.012;-1.648;2023-04-20T12:37:57;14.07;;;12.65;;
52692;SDS011;68218;51.012;-1.648;2023-04-20T12:40:22;14.30;;;12.75;;
52692;SDS011;68218;51.012;-1.648;2023-04-20T12:42:48;14.18;;;12.73;;
52692;SDS011;68218;51.012;-1.648;2023-04-20T12:45:13;13.73;;;12.52;;
52692;SDS011;68218;51.012;-1.648;2023-04-20T12:47:39;14.68;;;13.38;;
52692;SDS011;68218;51.012;-1.648;2023-04-20T12:50:05;14.65;;;13.15;;
52692;SDS011;68218;51.012;-1.648;2023-04-20T12:52:31;15.65;;;12.38;;
52692;SDS011;68218;51.012;-1.648;2023-04-20T12:54:57;14.52;;;13.32;;
52692;SDS011;68218;51.012;-1.648;2023-04-20T12:57:23;14.48;;;13.20;;
52692;SDS011;68218;51.012;-1.648;2023-04-20T12:59:49;14.57;;;13.38;;
52692;SDS011;68218;51.012;-1.648;2023-04-20T13:02:14;14.48;;;13.27;;
52692;SDS011;68218;51.012;-1.648;2023-04-20T13:04:39;15.30;;;13.85;;
52692;SDS011;68218;51.012;-1.648;2023-04-20T13:07:05;14.52;;;13.20;;
52692;SDS011;68218;51.012;-1.648;2023-04-20T13:09:31;13.93;;;12.73;;
52692;SDS011;68218;51.012;-1.648;2023-04-20T13:11:56;13.70;;;12.52;;
52692;SDS011;68218;51.012;-1.648;2023-04-20T13:14:23;13.70;;;12.57;;
52692;SDS011;68218;51.012;-1.648;2023-04-20T13:16:49;14.85;;;13.65;;
52692;SDS011;68218;51.012;-1.648;2023-04-20T13:19:14;16.08;;;14.38;;
52692;SDS011;68218;51.012;-1.648;2023-04-20T13:21:39;15.52;;;14.25;;
52692;SDS011;68218;51.012;-1.648;2023-04-20T13:24:05;14.10;;;12.93;;
52692;SDS011;68218;51.012;-1.648;2023-04-20T13:26:30;15.98;;;14.73;;
52692;SDS011;68218;51.012;-1.648;2023-04-20T13:28:56;15.52;;;14.18;;
52692;SDS011;68218;51.012;-1.648;2023-04-20T13:31:22;14.20;;;12.90;;
52692;SDS011;68218;51.012;-1.648;2023-04-20T13:33:48;15.55;;;14.15;;
52692;SDS011;68218;51.012;-1.648;2023-04-20T13:36:18;20.75;;;19.23;;
52692;SDS011;68218;51.012;-1.648;2023-04-20T13:38:47;15.40;;;14.07;;
52692;SDS011;68218;51.012;-1.648;2023-04-20T13:41:14;14.40;;;13.18;;
52692;SDS011;68218;51.012;-1.648;2023-04-20T13:43:41;13.85;;;12.73;;
52692;SDS011;68218;51.012;-1.648;2023-04-20T13:46:07;15.23;;;13.68;;
52692;SDS011;68218;51.012;-1.648;2023-04-20T13:48:33;15.75;;;14.35;;
52692;SDS011;68218;51.012;-1.648;2023-04-20T13:50:58;15.10;;;13.38;;
52692;SDS011;68218;51.012;-1.648;2023-04-20T13:53:23;16.08;;;14.68;;
52692;SDS011;68218;51.012;-1.648;2023-04-20T13:55:49;14.65;;;13.38;;
52692;SDS011;68218;51.012;-1.648;2023-04-20T13:58:16;14.52;;;13.15;;
52692;SDS011;68218;51.012;-1.648;2023-04-20T14:00:41;15.15;;;13.82;;
52692;SDS011;68218;51.012;-1.648;2023-04-20T14:03:09;14.73;;;13.30;;
52692;SDS011;68218;51.012;-1.648;2023-04-20T14:05:35;15.38;;;13.95;;
52692;SDS011;68218;51.012;-1.648;2023-04-20T14:08:02;15.07;;;13.68;;
52692;SDS011;68218;51.012;-1.648;2023-04-20T14:10:28;21.77;;;19.98;;
52692;SDS011;68218;51.012;-1.648;2023-04-20T14:12:54;15.82;;;14.27;;
52692;SDS011;68218;51.012;-1.648;2023-04-20T14:15:19;15.30;;;13.75;;
52692;SDS011;68218;51.012;-1.648;2023-04-20T14:17:45;15.85;;;14.18;;
52692;SDS011;68218;51.012;-1.648;2023-04-20T14:20:10;15.07;;;13.48;;
52692;SDS011;68218;51.012;-1.648;2023-04-20T14:22:36;16.27;;;14.77;;
52692;SDS011;68218;51.012;-1.648;2023-04-20T14:25:05;15.32;;;13.80;;
52692;SDS011;68218;51.012;-1.648;2023-04-20T14:27:31;15.05;;;13.65;;
52692;SDS011;68218;51.012;-1.648;2023-04-20T14:29:56;15.40;;;14.00;;
52692;SDS011;68218;51.012;-1.648;2023-04-20T14:32:22;15.02;;;13.68;;
52692;SDS011;68218;51.012;-1.648;2023-04-20T14:34:48;15.40;;;14.00;;
52692;SDS011;68218;51.012;-1.648;2023-04-20T14:37:13;14.82;;;13.55;;
52692;SDS011;68218;51.012;-1.648;2023-04-20T14:39:39;15.43;;;14.20;;